James M Cox Dayton International Airport
KDAY : now visible

Aeroporto :











RITROVATECI SU...

 
LOGIN :

Iscrizione | Disclaimer

   EN    FR    IT 

 









Sommario :    VFR   VFR Marginale   IFR   IFR Intensivo   IFR Molto Intensivo
Visibilità : 
Base nubi : 
>= 8 km
>= 3000ft
5 / 8 km
1000 / 3000 ft
1500m / 5 km
500 / 1000 ft
800 / 1500m
200 / 500 ft
< 800m
< 200 ft
Simboli :   Temporali  Nebbia  Neve Forte  Precipitazioni Forti  Vento > 20 kt






- Altitudine del aeroporto : 1009 ft
- Codice IATA : DAY


KDAY - James M Cox Dayton International

ULTIMO METAR :
  • 271856Z 27007KT 10SM FEW027 BKN100 11/04 A3007 RMK AO2 SLP186 T01110044

METARs OBSOLETI :
  • 271829Z 25005KT 10SM SCT027 OVC110 11/04 A3008 RMK AO2 T01060044
  • 271756Z 24009KT 10SM BKN029 OVC110 11/04 A3009 RMK AO2 SLP192 T01060044 10111 20072 58014
  • 271656Z 25008KT 10SM BKN026 10/04 A3012 RMK AO2 SLP203 T01000044

TAF KDAY
Valido dal 27 a 18 ore il 28 a 18 ore UTC


271731Z 2718/2818 25008KT P6SM BKN026
FM271900 24008KT P6SM SCT026 BKN100
FM280000 27005KT P6SM BKN090
FM280300 29006KT P6SM BKN025
FM280500 30010KT P6SM BKN015
FM280800 31009KT P6SM BKN050
FM281400 28008KT P6SM FEW250
FIR KZID / America del Nord



MetMap, La meteo Aeronautica in un colpo d'occhio ! - Copyright ORBIFLY Dicembre 2007 - Disclaimer

ORBIFLY MET'MAP TEAM :

Programmazione e sviluppo : Alexandra Zaïnal
Concezione : Baudouin d'Aumeries
Aiuto per la programmazione : Marc-Olivier Méhu
Supporto tecnico e logistico : Manuel Goepfert
Aiuto per la traduzione : Arnaldo La Scala

Contatto : metmap@orbifly.com




FONTI E CREDITI :

   NOAA       Earth
Advisory